createdAt,value
2017-07-12T00:00:17.678Z,6.64
2017-07-12T00:01:17.348Z,6.61
2017-07-12T00:02:17.651Z,6.57
2017-07-12T00:03:17.633Z,6.63
2017-07-12T00:04:17.623Z,6.58
2017-07-12T00:05:17.611Z,6.57
2017-07-12T00:06:17.590Z,6.58
2017-07-12T00:07:17.591Z,6.54
2017-07-12T00:08:17.629Z,6.48
2017-07-12T00:09:17.257Z,6.57
2017-07-12T00:10:17.552Z,6.54
2017-07-12T00:11:17.542Z,6.6
2017-07-12T00:12:17.533Z,6.57
2017-07-12T00:13:17.528Z,6.54
2017-07-12T00:14:17.506Z,6.58
2017-07-12T00:15:17.487Z,6.51
2017-07-12T00:16:17.484Z,6.61
2017-07-12T00:17:17.466Z,6.57
2017-07-12T00:18:17.467Z,6.57
2017-07-12T00:19:17.447Z,6.65
2017-07-12T00:20:17.123Z,6.63
2017-07-12T00:21:17.431Z,6.6
2017-07-12T00:22:17.411Z,6.58
2017-07-12T00:23:16.781Z,6.71
2017-07-12T00:24:17.281Z,6.64
2017-07-12T00:25:17.395Z,6.71
2017-07-12T00:26:17.372Z,6.82
2017-07-12T00:27:17.045Z,6.71
2017-07-12T00:28:17.343Z,6.68
2017-07-12T00:29:17.332Z,6.57
2017-07-12T00:30:17.324Z,6.5
2017-07-12T00:31:17.370Z,6.55
2017-07-12T00:32:17.298Z,6.57
2017-07-12T00:33:17.292Z,6.64
2017-07-12T00:34:17.272Z,6.71
2017-07-12T00:35:16.652Z,6.57
2017-07-12T00:36:17.255Z,6.57
2017-07-12T00:37:17.240Z,6.57
2017-07-12T00:38:17.239Z,6.6
2017-07-12T00:39:16.908Z,6.64
2017-07-12T00:40:16.904Z,6.58
2017-07-12T00:41:16.888Z,6.57
2017-07-12T00:42:16.872Z,6.54
2017-07-12T00:43:17.177Z,6.57
2017-07-12T00:44:16.862Z,6.53
2017-07-12T00:45:17.148Z,6.46
2017-07-12T00:46:16.831Z,6.55
2017-07-12T00:47:17.135Z,6.64
2017-07-12T00:48:17.121Z,6.53
2017-07-12T00:49:16.797Z,6.55
2017-07-12T00:50:17.102Z,6.54
2017-07-12T00:51:17.102Z,6.61
2017-07-12T00:52:17.067Z,6.61
2017-07-12T00:53:16.762Z,6.61
2017-07-12T00:54:17.058Z,6.58
2017-07-12T00:55:16.737Z,6.54
2017-07-12T00:56:16.738Z,6.61
2017-07-12T00:57:17.012Z,6.58
2017-07-12T00:58:16.389Z,6.61
2017-07-12T00:59:16.995Z,6.58
2017-07-12T01:00:16.985Z,6.57
2017-07-12T01:01:16.973Z,6.54
2017-07-12T01:02:16.965Z,6.58
2017-07-12T01:03:16.641Z,6.63
2017-07-12T01:04:16.933Z,6.61
2017-07-12T01:05:16.617Z,6.63
2017-07-12T01:06:16.298Z,6.68
2017-07-12T01:07:16.591Z,6.53
2017-07-12T01:08:16.890Z,6.58
2017-07-12T01:09:16.881Z,6.64
2017-07-12T01:10:16.868Z,6.58
2017-07-12T01:11:16.864Z,6.71
2017-07-12T01:12:16.855Z,6.63
2017-07-12T01:13:16.519Z,6.69
2017-07-12T01:14:16.828Z,6.76
2017-07-12T01:15:16.807Z,6.61
2017-07-12T01:16:16.793Z,6.64
2017-07-12T01:17:16.790Z,6.68
2017-07-12T01:18:16.459Z,6.63
2017-07-12T01:19:16.762Z,6.58
2017-07-12T01:20:16.755Z,6.71
2017-07-12T01:21:16.743Z,6.75
2017-07-12T01:22:16.724Z,6.78
2017-07-12T01:23:16.098Z,6.69
2017-07-12T01:24:16.765Z,6.68
2017-07-12T01:25:16.692Z,6.65
2017-07-12T01:26:16.371Z,6.72
2017-07-12T01:27:16.675Z,6.61
2017-07-12T01:28:16.665Z,6.61
2017-07-12T01:29:16.642Z,6.69
2017-07-12T01:30:16.644Z,6.6
2017-07-12T01:31:16.627Z,6.61
2017-07-12T01:32:16.625Z,6.63
2017-07-12T01:33:16.606Z,6.58
2017-07-12T01:34:16.591Z,6.61
2017-07-12T01:35:16.582Z,6.64
2017-07-12T01:36:16.577Z,6.54
2017-07-12T01:37:16.560Z,6.6
2017-07-12T01:38:16.238Z,6.65
2017-07-12T01:39:16.546Z,6.64
2017-07-12T01:40:16.217Z,6.63
2017-07-12T01:41:16.528Z,6.69
2017-07-12T01:42:16.507Z,6.64
2017-07-12T01:43:16.180Z,6.76
2017-07-12T01:44:16.480Z,6.78
2017-07-12T01:45:16.471Z,6.82
2017-07-12T01:46:16.138Z,6.86
2017-07-12T01:47:16.443Z,6.83
2017-07-12T01:48:16.117Z,6.82
2017-07-12T01:49:16.423Z,6.89
2017-07-12T01:50:16.409Z,6.91
2017-07-12T01:51:16.412Z,6.9
2017-07-12T01:52:16.078Z,6.87
2017-07-12T01:53:16.065Z,6.86
2017-07-12T01:54:16.371Z,6.79
2017-07-12T01:55:16.345Z,6.79
2017-07-12T01:56:16.340Z,6.87
2017-07-12T01:57:16.327Z,6.87
2017-07-12T01:58:16.321Z,6.81
2017-07-12T01:59:15.989Z,6.86
2017-07-12T02:00:16.294Z,6.89
2017-07-12T02:01:16.280Z,6.81
2017-07-12T02:02:16.269Z,7
2017-07-12T02:03:16.270Z,7.01
2017-07-12T02:04:15.625Z,7.04
2017-07-12T02:05:16.234Z,6.96
2017-07-12T02:06:15.912Z,6.89
2017-07-12T02:07:16.213Z,6.93
2017-07-12T02:08:16.205Z,6.99
2017-07-12T02:09:15.571Z,6.99
2017-07-12T02:10:16.172Z,6.93
2017-07-12T02:11:15.861Z,6.96
2017-07-12T02:12:16.213Z,6.9
2017-07-12T02:13:16.142Z,7.04
2017-07-12T02:14:16.128Z,6.91
2017-07-12T02:15:16.127Z,6.86
2017-07-12T02:16:15.799Z,6.89
2017-07-12T02:17:16.096Z,6.86
2017-07-12T02:18:15.783Z,6.81
2017-07-12T02:19:15.776Z,6.89
2017-07-12T02:20:15.753Z,6.86
2017-07-12T02:21:15.437Z,6.82
2017-07-12T02:22:16.043Z,6.68
2017-07-12T02:23:15.413Z,6.82
2017-07-12T02:24:16.024Z,6.79
2017-07-12T02:25:16.020Z,6.81
2017-07-12T02:26:15.375Z,6.82
2017-07-12T02:27:15.982Z,6.82
2017-07-12T02:28:15.974Z,6.87
2017-07-12T02:29:15.972Z,6.79
2017-07-12T02:30:15.947Z,6.86
2017-07-12T02:31:15.640Z,6.9
2017-07-12T02:32:15.938Z,6.96
2017-07-12T02:33:15.607Z,6.82
2017-07-12T02:34:15.905Z,6.82
2017-07-12T02:35:15.895Z,6.73
2017-07-12T02:36:15.575Z,6.81
2017-07-12T02:37:15.564Z,6.73
2017-07-12T02:38:15.570Z,6.72
2017-07-12T02:39:15.859Z,6.68
2017-07-12T02:40:15.842Z,6.73
2017-07-12T02:41:15.526Z,6.6
2017-07-12T02:42:15.515Z,6.76
2017-07-12T02:43:15.491Z,6.76
2017-07-12T02:44:15.495Z,6.76
2017-07-12T02:45:15.776Z,6.65
2017-07-12T02:46:15.473Z,6.72
2017-07-12T02:47:15.448Z,6.73
2017-07-12T02:48:15.447Z,6.72
2017-07-12T02:49:15.424Z,6.72
2017-07-12T02:50:15.420Z,6.83
2017-07-12T02:51:15.410Z,6.91
2017-07-12T02:52:15.715Z,6.86
2017-07-12T02:53:15.688Z,6.91
2017-07-12T02:54:15.701Z,6.82
2017-07-12T02:55:15.673Z,6.94
2017-07-12T02:56:15.658Z,6.87
2017-07-12T02:57:15.671Z,6.82
2017-07-12T02:58:15.666Z,6.89
2017-07-12T02:59:15.320Z,6.99
2017-07-12T03:00:15.622Z,6.99
2017-07-12T03:01:15.303Z,6.97
2017-07-12T03:02:14.982Z,6.99
2017-07-12T03:03:15.286Z,7
2017-07-12T03:04:14.959Z,6.86
2017-07-12T03:05:15.264Z,6.83
2017-07-12T03:06:15.249Z,6.73
2017-07-12T03:07:15.229Z,6.82
2017-07-12T03:08:15.231Z,6.72
2017-07-12T03:09:15.525Z,6.82
2017-07-12T03:10:15.514Z,6.73
2017-07-12T03:11:15.495Z,6.69
2017-07-12T03:12:15.191Z,6.68
2017-07-12T03:13:15.174Z,6.69
2017-07-12T03:14:15.162Z,6.73
2017-07-12T03:15:15.143Z,6.81
2017-07-12T03:16:15.441Z,6.82
2017-07-12T03:17:15.119Z,6.83
2017-07-12T03:18:15.107Z,6.86
2017-07-12T03:19:15.099Z,6.9
2017-07-12T03:20:15.089Z,6.83
2017-07-12T03:21:15.391Z,6.99
2017-07-12T03:22:15.373Z,6.94
2017-07-12T03:23:14.742Z,6.96
2017-07-12T03:24:15.353Z,6.86
2017-07-12T03:25:15.345Z,6.86
2017-07-12T03:26:15.345Z,6.96
2017-07-12T03:27:15.008Z,6.93
2017-07-12T03:28:15.310Z,6.93
2017-07-12T03:29:15.298Z,6.87
2017-07-12T03:30:14.977Z,6.99
2017-07-12T03:31:15.274Z,6.99
2017-07-12T03:32:14.951Z,6.94
2017-07-12T03:33:15.263Z,6.93
2017-07-12T03:34:15.234Z,6.99
2017-07-12T03:35:15.235Z,7.08
2017-07-12T03:36:14.904Z,7.05
2017-07-12T03:37:15.212Z,7.07
2017-07-12T03:38:14.893Z,7.04
2017-07-12T03:39:15.186Z,7.19
2017-07-12T03:40:14.868Z,6.99
2017-07-12T03:41:15.166Z,7.07
2017-07-12T03:42:15.148Z,7.04
2017-07-12T03:43:15.140Z,7.07
2017-07-12T03:44:15.129Z,7.07
2017-07-12T03:45:14.807Z,7.14
2017-07-12T03:46:14.799Z,7.23
2017-07-12T03:47:14.792Z,7.26
2017-07-12T03:48:15.084Z,7.19
2017-07-12T03:49:14.770Z,7.23
2017-07-12T03:50:15.071Z,7.19
2017-07-12T03:51:15.064Z,7.23
2017-07-12T03:52:15.056Z,7.3
2017-07-12T03:53:14.718Z,7.47
2017-07-12T03:54:15.014Z,7.55
2017-07-12T03:55:14.697Z,7.63
2017-07-12T03:56:14.990Z,7.7
2017-07-12T03:57:14.987Z,7.91
2017-07-12T03:58:14.977Z,7.89
2017-07-12T03:59:14.961Z,7.77
2017-07-12T04:00:14.959Z,7.84
2017-07-12T04:01:14.631Z,7.94
2017-07-12T04:02:14.619Z,7.88
2017-07-12T04:03:14.924Z,7.96
2017-07-12T04:04:14.910Z,7.99
2017-07-12T04:05:14.897Z,8.03
2017-07-12T04:06:14.576Z,7.99
2017-07-12T04:07:14.875Z,8.03
2017-07-12T04:08:14.861Z,8.02
2017-07-12T04:09:14.873Z,8.06
2017-07-12T04:10:14.837Z,8.02
2017-07-12T04:11:14.831Z,8.03
2017-07-12T04:12:14.516Z,8.03
2017-07-12T04:13:14.499Z,8.06
2017-07-12T04:14:14.488Z,8.06
2017-07-12T04:15:14.480Z,8
2017-07-12T04:16:14.467Z,8
2017-07-12T04:17:14.462Z,8.07
2017-07-12T04:18:14.757Z,8.03
2017-07-12T04:19:14.744Z,8.12
2017-07-12T04:20:14.749Z,8.17
2017-07-12T04:21:14.727Z,8.17
2017-07-12T04:22:14.718Z,8.13
2017-07-12T04:23:14.081Z,8.27
2017-07-12T04:24:14.683Z,8.29
2017-07-12T04:25:14.371Z,8.32
2017-07-12T04:26:14.365Z,8.49
2017-07-12T04:27:14.350Z,8.52
2017-07-12T04:28:14.331Z,8.4
2017-07-12T04:29:14.332Z,8.45
2017-07-12T04:30:14.329Z,8.49
2017-07-12T04:31:14.620Z,8.39
2017-07-12T04:32:14.612Z,8.31
2017-07-12T04:33:14.602Z,8.31
2017-07-12T04:34:14.581Z,8.27
2017-07-12T04:35:14.571Z,8.28
2017-07-12T04:36:14.566Z,8.18
2017-07-12T04:37:14.550Z,8.25
2017-07-12T04:38:14.535Z,8.31
2017-07-12T04:39:14.222Z,8.32
2017-07-12T04:40:14.512Z,8.36
2017-07-12T04:41:14.511Z,8.31
2017-07-12T04:42:14.495Z,8.31
2017-07-12T04:43:14.483Z,8.29
2017-07-12T04:44:14.151Z,8.32
2017-07-12T04:45:14.464Z,8.32
2017-07-12T04:46:14.440Z,8.27
2017-07-12T04:47:14.437Z,8.31
2017-07-12T04:48:14.433Z,8.34
2017-07-12T04:49:14.414Z,8.4
2017-07-12T04:50:14.403Z,8.4
2017-07-12T04:51:14.391Z,8.34
2017-07-12T04:52:14.383Z,8.24
2017-07-12T04:53:14.060Z,8.13
2017-07-12T04:54:14.106Z,8.24
2017-07-12T04:55:14.341Z,8.31
2017-07-12T04:56:14.334Z,8.31
2017-07-12T04:57:14.324Z,8.29
2017-07-12T04:58:14.000Z,8.29
2017-07-12T04:59:14.306Z,8.29
2017-07-12T05:00:14.299Z,8.34
2017-07-12T05:01:13.963Z,8.29
2017-07-12T05:02:13.955Z,8.39
2017-07-12T05:03:14.255Z,8.4
2017-07-12T05:04:13.623Z,8.42
2017-07-12T05:05:14.236Z,8.43
2017-07-12T05:06:13.908Z,8.45
2017-07-12T05:07:14.216Z,8.49
2017-07-12T05:08:14.210Z,8.46
2017-07-12T05:09:14.184Z,8.52
2017-07-12T05:10:13.868Z,8.54
2017-07-12T05:11:14.173Z,8.55
2017-07-12T05:12:14.161Z,8.52
2017-07-12T05:13:14.143Z,8.47
2017-07-12T05:14:13.520Z,8.49
2017-07-12T05:15:14.129Z,8.54
2017-07-12T05:16:13.812Z,8.49
2017-07-12T05:17:14.108Z,8.57
2017-07-12T05:18:14.102Z,8.39
2017-07-12T05:19:14.089Z,8.47
2017-07-12T05:20:13.775Z,8.49
2017-07-12T05:21:14.071Z,8.52
2017-07-12T05:22:13.740Z,8.61
2017-07-12T05:23:13.419Z,8.67
2017-07-12T05:24:14.050Z,8.61
2017-07-12T05:25:13.711Z,8.68
2017-07-12T05:26:14.021Z,8.63
2017-07-12T05:27:13.998Z,8.7
2017-07-12T05:28:13.994Z,8.71
2017-07-12T05:29:13.976Z,8.73
2017-07-12T05:30:13.664Z,8.65
2017-07-12T05:31:13.646Z,8.57
2017-07-12T05:32:13.949Z,8.63
2017-07-12T05:33:13.944Z,8.65
2017-07-12T05:34:13.934Z,8.64
2017-07-12T05:35:13.617Z,8.55
2017-07-12T05:36:13.905Z,8.57
2017-07-12T05:37:13.276Z,8.57
2017-07-12T05:38:13.892Z,8.61
2017-07-12T05:39:13.883Z,8.75
2017-07-12T05:40:13.872Z,8.86
2017-07-12T05:41:13.872Z,8.78
2017-07-12T05:42:13.538Z,8.96
2017-07-12T05:43:13.218Z,8.8
2017-07-12T05:44:13.515Z,8.78
2017-07-12T05:45:13.508Z,8.88
2017-07-12T05:46:13.806Z,8.97
2017-07-12T05:47:13.795Z,9.01
2017-07-12T05:48:13.788Z,9.15
2017-07-12T05:49:13.776Z,9.12
2017-07-12T05:50:13.766Z,9.08
2017-07-12T05:51:13.750Z,9.49
2017-07-12T05:52:13.747Z,9.34
2017-07-12T05:53:13.724Z,9.55
2017-07-12T05:54:13.711Z,9.48
2017-07-12T05:55:13.709Z,9.27
2017-07-12T05:56:13.707Z,9.22
2017-07-12T05:57:13.378Z,9.27
2017-07-12T05:58:13.673Z,9.12
2017-07-12T05:59:13.047Z,9.15
2017-07-12T06:00:13.650Z,9.08
2017-07-12T06:01:13.656Z,9.15
2017-07-12T06:02:13.635Z,9.12
2017-07-12T06:03:13.632Z,9.13
2017-07-12T06:04:13.608Z,9.03
2017-07-12T06:05:13.608Z,9
2017-07-12T06:06:13.317Z,8.97
2017-07-12T06:07:13.580Z,9.08
2017-07-12T06:08:13.570Z,8.96
2017-07-12T06:09:13.553Z,9.03
2017-07-12T06:10:13.549Z,9.01
2017-07-12T06:11:13.548Z,8.93
2017-07-12T06:12:13.529Z,9.03
2017-07-12T06:13:13.514Z,9.37
2017-07-12T06:14:13.515Z,10.02
2017-07-12T06:15:13.497Z,10.16
2017-07-12T06:16:13.496Z,10.02
2017-07-12T06:17:13.486Z,10.35
2017-07-12T06:18:13.467Z,10.36
2017-07-12T06:19:13.149Z,10.42
2017-07-12T06:20:13.449Z,10.34
2017-07-12T06:21:13.445Z,10.62
2017-07-12T06:22:12.810Z,11.24
2017-07-12T06:23:13.104Z,11.46
2017-07-12T06:24:13.407Z,10.76
2017-07-12T06:25:13.391Z,10.42
2017-07-12T06:26:13.379Z,10.16
2017-07-12T06:27:13.379Z,10.49
2017-07-12T06:28:13.373Z,11.09
2017-07-12T06:29:13.349Z,10.73
2017-07-12T06:30:13.345Z,10.42
2017-07-12T06:31:13.348Z,10.52
2017-07-12T06:32:13.025Z,10.39
2017-07-12T06:33:13.320Z,10.68
2017-07-12T06:34:12.686Z,10.98
2017-07-12T06:35:12.993Z,10.78
2017-07-12T06:36:13.297Z,10.75
2017-07-12T06:37:13.281Z,10.9
2017-07-12T06:38:13.285Z,11.56
2017-07-12T06:39:13.277Z,11.88
2017-07-12T06:40:13.322Z,12.07
2017-07-12T06:41:13.247Z,11.66
2017-07-12T06:42:13.241Z,11.72
2017-07-12T06:43:13.232Z,10.84
2017-07-12T06:44:13.235Z,10.39
2017-07-12T06:45:13.216Z,10.2
2017-07-12T06:46:12.903Z,10.22
2017-07-12T06:47:13.200Z,9.88
2017-07-12T06:48:12.878Z,9.93
2017-07-12T06:49:13.179Z,10.06
2017-07-12T06:50:12.861Z,10.14
2017-07-12T06:51:12.860Z,10.43
2017-07-12T06:52:13.154Z,10.68
2017-07-12T06:53:12.829Z,10.8
2017-07-12T06:54:13.134Z,10.68
2017-07-12T06:55:13.134Z,11.26
2017-07-12T06:56:12.810Z,12.01
2017-07-12T06:57:13.109Z,11.98
2017-07-12T06:58:13.098Z,11.81
2017-07-12T06:59:13.096Z,11.66
2017-07-12T07:00:13.095Z,11.46
2017-07-12T07:01:13.082Z,11.11
2017-07-12T07:02:12.759Z,11.24
2017-07-12T07:03:13.058Z,11.84
2017-07-12T07:04:13.040Z,12.11
2017-07-12T07:05:13.032Z,12.16
2017-07-12T07:06:13.034Z,12
2017-07-12T07:07:12.705Z,12.38
2017-07-12T07:08:13.016Z,12.88
2017-07-12T07:09:13.022Z,13.54
2017-07-12T07:10:13.001Z,13.88
2017-07-12T07:11:12.993Z,13.91
2017-07-12T07:12:12.364Z,13.83
2017-07-12T07:13:12.662Z,13.41
2017-07-12T07:14:12.975Z,13.39
2017-07-12T07:15:12.955Z,13.31
2017-07-12T07:16:12.946Z,13.44
2017-07-12T07:17:12.940Z,13.46
2017-07-12T07:18:12.938Z,13.66
2017-07-12T07:19:12.937Z,13.76
2017-07-12T07:20:12.613Z,13.69
2017-07-12T07:21:12.599Z,13.81
2017-07-12T07:22:12.589Z,13.06
2017-07-12T07:23:12.278Z,12.98
2017-07-12T07:24:12.893Z,12.89
2017-07-12T07:25:12.878Z,13.44
2017-07-12T07:26:12.877Z,13.86
2017-07-12T07:27:12.875Z,14.42
2017-07-12T07:28:12.872Z,13.91
2017-07-12T07:29:12.541Z,13.04
2017-07-12T07:30:12.546Z,12.22
2017-07-12T07:31:12.840Z,12.49
2017-07-12T07:32:12.529Z,12.71
2017-07-12T07:33:12.828Z,12.33
2017-07-12T07:34:12.820Z,12.18
2017-07-12T07:35:12.496Z,12.03
2017-07-12T07:36:12.803Z,12.19
2017-07-12T07:37:12.793Z,11.81
2017-07-12T07:38:12.780Z,12.3
2017-07-12T07:39:12.782Z,12.73
2017-07-12T07:40:12.773Z,13.21
2017-07-12T07:41:12.773Z,13.88
2017-07-12T07:42:12.761Z,14.85
2017-07-12T07:43:12.749Z,15.3
2017-07-12T07:44:12.447Z,15.88
2017-07-12T07:45:12.740Z,16.13
2017-07-12T07:46:12.733Z,16.1
2017-07-12T07:47:12.721Z,15.7
2017-07-12T07:48:12.708Z,15.76
2017-07-12T07:49:12.706Z,15.6
2017-07-12T07:50:12.397Z,15.38
2017-07-12T07:51:12.691Z,15.18
2017-07-12T07:52:12.383Z,15.2
2017-07-12T07:53:12.373Z,14.82
2017-07-12T07:54:12.683Z,14.95
2017-07-12T07:55:12.363Z,15.2
2017-07-12T07:56:12.665Z,15.78
2017-07-12T07:57:12.674Z,15.12
2017-07-12T07:58:12.656Z,14.34
2017-07-12T07:59:12.340Z,14.05
2017-07-12T08:00:12.645Z,14.11
2017-07-12T08:01:12.638Z,14.06
2017-07-12T08:02:12.638Z,13.76
2017-07-12T08:03:12.012Z,13.16
2017-07-12T08:04:12.627Z,12.13
2017-07-12T08:05:12.618Z,11.59
2017-07-12T08:06:12.301Z,11.72
2017-07-12T08:07:12.602Z,12.26
2017-07-12T08:08:12.598Z,11.87
2017-07-12T08:09:12.581Z,11.38
2017-07-12T08:10:12.574Z,11.01
2017-07-12T08:11:12.581Z,11.26
2017-07-12T08:12:11.950Z,11.56
2017-07-12T08:13:12.579Z,11.66
2017-07-12T08:14:11.929Z,11.62
2017-07-12T08:15:12.542Z,11.59
2017-07-12T08:16:11.915Z,11.46
2017-07-12T08:17:12.222Z,11.81
2017-07-12T08:18:12.519Z,11.67
2017-07-12T08:19:12.516Z,11.94
2017-07-12T08:20:12.187Z,11.6
2017-07-12T08:21:12.493Z,11.88
2017-07-12T08:22:12.184Z,12.03
2017-07-12T08:23:12.163Z,12.21
2017-07-12T08:24:12.467Z,12.08
2017-07-12T08:25:12.464Z,12.18
2017-07-12T08:26:12.448Z,12.07
2017-07-12T08:27:12.142Z,11.82
2017-07-12T08:28:12.430Z,11.36
2017-07-12T08:29:12.114Z,11.6
2017-07-12T08:30:12.116Z,11.45
2017-07-12T08:31:12.112Z,11.51
2017-07-12T08:32:12.416Z,11.66
2017-07-12T08:33:12.394Z,11.94
2017-07-12T08:34:12.398Z,11.56
2017-07-12T08:35:12.067Z,11.59
2017-07-12T08:36:12.378Z,12.21
2017-07-12T08:37:12.053Z,12.85
2017-07-12T08:38:11.743Z,12.69
2017-07-12T08:39:12.037Z,12.55
2017-07-12T08:40:12.343Z,12.58
2017-07-12T08:41:12.338Z,12.38
2017-07-12T08:42:12.325Z,12.44
2017-07-12T08:43:12.314Z,12.33
2017-07-12T08:44:12.309Z,12.61
2017-07-12T08:45:11.988Z,13.43
2017-07-12T08:46:12.295Z,13.43
2017-07-12T08:47:11.970Z,13.24
2017-07-12T08:48:12.286Z,13.22
2017-07-12T08:49:11.965Z,13.43
2017-07-12T08:50:11.957Z,13.83
2017-07-12T08:51:12.278Z,14.36
2017-07-12T08:52:12.246Z,14.38
2017-07-12T08:53:11.932Z,14.49
2017-07-12T08:54:12.232Z,14.42
2017-07-12T08:55:12.229Z,14.34
2017-07-12T08:56:11.913Z,13.94
2017-07-12T08:57:12.211Z,13.35
2017-07-12T08:58:11.899Z,12.91
2017-07-12T08:59:12.208Z,13.27
2017-07-12T09:00:12.189Z,13.65
2017-07-12T09:01:12.197Z,13.68
2017-07-12T09:02:12.186Z,13.72
2017-07-12T09:03:12.171Z,13.5
2017-07-12T09:04:11.862Z,13.68
2017-07-12T09:05:12.163Z,14.24
2017-07-12T09:06:12.160Z,14.49
2017-07-12T09:07:12.151Z,14.26
2017-07-12T09:08:12.139Z,13.88
2017-07-12T09:09:12.129Z,13.61
2017-07-12T09:10:12.131Z,13.13
2017-07-12T09:11:12.127Z,13.07
2017-07-12T09:12:11.802Z,13.87
2017-07-12T09:13:12.108Z,14.38
2017-07-12T09:14:12.092Z,14.49
2017-07-12T09:15:12.099Z,14.63
2017-07-12T09:16:12.093Z,15.01
2017-07-12T09:17:11.777Z,15.96
2017-07-12T09:18:12.081Z,15.99
2017-07-12T09:19:12.080Z,15.99
2017-07-12T09:20:12.061Z,15.84
2017-07-12T09:21:12.050Z,16.14
2017-07-12T09:22:11.737Z,16.34
2017-07-12T09:23:11.736Z,16.8
2017-07-12T09:24:12.045Z,17.17
2017-07-12T09:33:11.986Z,16.3
2017-07-12T09:34:11.676Z,16.63
2017-07-12T09:35:11.986Z,16.85
2017-07-12T09:36:11.977Z,17.28
2017-07-12T09:37:11.659Z,17.68
2017-07-12T09:38:11.958Z,17.81
2017-07-12T09:39:11.660Z,17.89
2017-07-12T09:40:11.955Z,17.28
2017-07-12T09:41:11.940Z,16.75
2017-07-12T09:42:11.936Z,16.11
2017-07-12T09:43:11.947Z,15.03
2017-07-12T09:44:11.934Z,14.98
2017-07-12T09:45:11.932Z,15.07
2017-07-12T09:46:11.927Z,15.41
2017-07-12T09:47:11.924Z,14.94
2017-07-12T09:48:11.915Z,13.63
2017-07-12T09:49:11.914Z,12.99
2017-07-12T09:50:11.895Z,12.59
2017-07-12T09:51:11.899Z,12.96
2017-07-12T09:52:11.582Z,12.63
2017-07-12T09:53:11.892Z,13.41
2017-07-12T09:54:11.872Z,14.41
2017-07-12T09:55:11.869Z,14.79
2017-07-12T09:56:11.870Z,14.41
2017-07-12T09:57:11.548Z,14.86
2017-07-12T09:58:11.849Z,14.42
2017-07-12T09:59:11.225Z,14.16
2017-07-12T10:00:11.852Z,13.94
2017-07-12T10:01:11.856Z,14.66
2017-07-12T10:02:11.830Z,15.07
2017-07-12T10:03:11.523Z,15.51
2017-07-12T10:04:11.204Z,15.23
2017-07-12T10:05:11.818Z,15.2
2017-07-12T10:06:11.502Z,15.92
2017-07-12T10:07:11.500Z,15.88
2017-07-12T10:08:11.801Z,16.11
2017-07-12T10:09:11.804Z,16.8
2017-07-12T10:10:11.789Z,16.32
2017-07-12T10:11:11.790Z,16.01
2017-07-12T10:12:11.794Z,15.2
2017-07-12T10:13:11.770Z,14.69
2017-07-12T10:14:11.779Z,14.46
2017-07-12T10:15:11.773Z,14.06
2017-07-12T10:16:11.759Z,13.75
2017-07-12T10:17:11.440Z,14.13
2017-07-12T10:18:11.433Z,13.66
2017-07-12T10:19:11.428Z,14.59
2017-07-12T10:20:11.428Z,14.44
2017-07-12T10:21:11.427Z,14.12
2017-07-12T10:22:11.422Z,14.94
2017-07-12T10:23:11.094Z,14.83
2017-07-12T10:24:11.405Z,14.53
2017-07-12T10:25:11.714Z,14.42
2017-07-12T10:26:11.702Z,14.41
2017-07-12T10:27:11.697Z,15.13
2017-07-12T10:28:11.695Z,15.66
2017-07-12T10:29:11.374Z,15.59
2017-07-12T10:30:11.723Z,15.19
2017-07-12T10:31:11.359Z,15.43
2017-07-12T10:32:11.355Z,15.44
2017-07-12T10:33:11.674Z,15.41
2017-07-12T10:34:11.657Z,15.66
2017-07-12T10:35:11.648Z,14.42
2017-07-12T10:36:11.650Z,14.56
2017-07-12T10:37:11.646Z,13.61
2017-07-12T10:38:11.327Z,12.85
2017-07-12T10:39:11.007Z,12.76
2017-07-12T10:40:11.311Z,13.17
2017-07-12T10:41:11.311Z,12.89
2017-07-12T10:42:11.603Z,12.43
2017-07-12T10:43:11.294Z,12.76
2017-07-12T10:44:11.290Z,13.1
2017-07-12T10:45:11.273Z,12.84
2017-07-12T10:46:11.267Z,12.77
2017-07-12T10:47:11.264Z,12.71
2017-07-12T10:48:11.254Z,12.54
2017-07-12T10:49:11.251Z,12.03
2017-07-12T10:50:11.251Z,11.6
2017-07-12T10:51:11.246Z,11.62
2017-07-12T10:52:11.236Z,11.64
2017-07-12T10:53:11.547Z,11.64
2017-07-12T10:54:11.221Z,11.6
2017-07-12T10:55:11.518Z,11.48
2017-07-12T10:56:11.203Z,11.44
2017-07-12T10:57:11.502Z,11.46
2017-07-12T10:58:11.181Z,11.27
2017-07-12T10:59:11.175Z,11.46
2017-07-12T11:00:11.163Z,11.38
2017-07-12T11:01:11.472Z,11.16
2017-07-12T11:02:11.162Z,11.08
2017-07-12T11:03:11.465Z,11.2
2017-07-12T11:04:11.134Z,11.36
2017-07-12T11:05:11.449Z,11.49
2017-07-12T11:06:11.121Z,11.3
2017-07-12T11:07:11.440Z,11.11
2017-07-12T11:08:11.111Z,10.95
2017-07-12T11:09:11.094Z,11.64
2017-07-12T11:10:11.098Z,12.66
2017-07-12T11:11:11.387Z,12.51
2017-07-12T11:12:11.077Z,13.43
2017-07-12T11:13:11.065Z,14.52
2017-07-12T11:14:11.060Z,14.94
2017-07-12T11:15:11.364Z,14.2
2017-07-12T11:16:11.047Z,14.01
2017-07-12T11:17:11.355Z,13.79
2017-07-12T11:18:11.346Z,13.99
2017-07-12T11:19:11.333Z,14.12
2017-07-12T11:20:11.321Z,14.31
2017-07-12T11:21:11.320Z,14.35
2017-07-12T11:22:11.011Z,13.86
2017-07-12T11:23:10.690Z,13.61
2017-07-12T11:24:11.296Z,13.09
2017-07-12T11:25:11.296Z,13.06
2017-07-12T11:26:11.299Z,12.49
2017-07-12T11:27:11.282Z,12.15
2017-07-12T11:28:11.282Z,11.63
2017-07-12T11:29:11.260Z,11.27
2017-07-12T11:30:11.261Z,10.99
2017-07-12T11:31:11.254Z,11.44
2017-07-12T11:32:11.259Z,11.56
2017-07-12T11:33:11.238Z,11.48
2017-07-12T11:34:11.229Z,10.88
2017-07-12T11:35:11.229Z,10.72
2017-07-12T11:36:11.214Z,10.31
2017-07-12T11:37:10.897Z,10.2
2017-07-12T11:38:11.200Z,10.44
2017-07-12T11:39:11.209Z,10.94
2017-07-12T11:40:11.181Z,11.81
2017-07-12T11:41:11.183Z,12.48
2017-07-12T11:42:11.169Z,13.14
2017-07-12T11:43:11.154Z,13.81
2017-07-12T11:44:10.843Z,13.98
2017-07-12T11:45:11.135Z,14.52
2017-07-12T11:46:11.138Z,14.44
2017-07-12T11:47:10.824Z,14.11
2017-07-12T11:48:10.810Z,14.17
2017-07-12T11:49:11.119Z,14.85
2017-07-12T11:50:11.106Z,15.3
2017-07-12T11:51:11.101Z,15.52
2017-07-12T11:52:11.090Z,15.86
2017-07-12T11:53:11.090Z,15.7
2017-07-12T11:54:11.090Z,14.21
2017-07-12T11:55:10.768Z,14.3
2017-07-12T11:56:10.757Z,15.18
2017-07-12T11:57:10.753Z,15.77
2017-07-12T11:58:10.739Z,15.18
2017-07-12T11:59:11.059Z,15.07
2017-07-12T12:00:10.731Z,15.86
2017-07-12T12:01:11.037Z,16.06
2017-07-12T12:02:11.030Z,15.05
2017-07-12T12:03:10.719Z,14.52
2017-07-12T12:04:11.021Z,14.12
2017-07-12T12:05:11.007Z,14.38
2017-07-12T12:06:10.688Z,14.52
2017-07-12T12:07:10.690Z,14.08
2017-07-12T12:08:10.376Z,13.43
2017-07-12T12:09:10.998Z,12.98
2017-07-12T12:10:10.992Z,12.79
2017-07-12T12:11:10.663Z,13.35
2017-07-12T12:12:10.966Z,13.16
2017-07-12T12:13:10.645Z,13.79
2017-07-12T12:14:10.951Z,14.2
2017-07-12T12:15:10.633Z,14.48
2017-07-12T12:16:10.938Z,14.69
2017-07-12T12:17:10.626Z,14.94
2017-07-12T12:18:10.618Z,13.32
2017-07-12T12:19:10.308Z,13.36
2017-07-12T12:20:10.616Z,13.55
2017-07-12T12:21:10.916Z,13.22
2017-07-12T12:22:10.284Z,12.96
2017-07-12T12:23:10.584Z,12.69
2017-07-12T12:24:10.889Z,12.58
2017-07-12T12:25:10.573Z,11.94
2017-07-12T12:26:10.566Z,12.05
2017-07-12T12:27:10.868Z,12.43
2017-07-12T12:28:10.870Z,12.34
2017-07-12T12:29:10.851Z,12.29
2017-07-12T12:30:10.849Z,12.08
2017-07-12T12:31:10.534Z,11.59
2017-07-12T12:32:10.210Z,11.41
2017-07-12T12:33:10.209Z,11.3
2017-07-12T12:34:10.507Z,11.05
2017-07-12T12:35:10.190Z,10.95
2017-07-12T12:36:10.804Z,10.95
2017-07-12T12:37:10.177Z,10.87
2017-07-12T12:38:10.787Z,11.13
2017-07-12T12:39:10.774Z,11.21
2017-07-12T12:40:10.764Z,10.69
2017-07-12T12:41:10.446Z,10.7
2017-07-12T12:42:10.442Z,10.28
2017-07-12T12:43:10.750Z,10.22
2017-07-12T12:44:10.750Z,10.24
2017-07-12T12:45:10.424Z,10.29
2017-07-12T12:46:10.718Z,10.36
2017-07-12T12:47:10.708Z,10.54
2017-07-12T12:48:10.700Z,10.44
2017-07-12T12:49:10.694Z,9.95
2017-07-12T12:50:10.703Z,10.04
2017-07-12T12:51:10.063Z,9.8
2017-07-12T12:52:10.365Z,9.77
2017-07-12T12:53:10.659Z,9.88
2017-07-12T12:54:10.661Z,9.83
2017-07-12T12:55:10.640Z,10.29
2017-07-12T12:56:10.645Z,10.2
2017-07-12T12:57:10.325Z,10.18
2017-07-12T12:58:10.853Z,10.26
2017-07-12T12:59:10.617Z,10.25
2017-07-12T13:00:10.609Z,10.11
2017-07-12T13:01:10.597Z,10.13
2017-07-12T13:02:10.579Z,10.2
2017-07-12T13:03:10.777Z,10.18
2017-07-12T13:04:09.946Z,10.13
2017-07-12T13:05:10.548Z,10.17
2017-07-12T13:06:10.545Z,10.11
2017-07-12T13:07:10.535Z,10.25
2017-07-12T13:08:10.534Z,10.02
2017-07-12T13:09:10.747Z,9.96
2017-07-12T13:10:10.521Z,9.96
2017-07-12T13:11:10.498Z,9.85
2017-07-12T13:12:10.486Z,9.98
2017-07-12T13:13:10.483Z,9.86
2017-07-12T13:14:10.461Z,9.73
2017-07-12T13:15:10.150Z,9.45